Time;durP1;ratioP1;P1;durP2;ratioP2;P2;SDS_P1;SDS_P2;PMS_P1;PMS_P2;Temp;Humidity;BMP_temperature;BMP_pressure;BME280_temperature;BME280_humidity;BME280_pressure;Samples;Min_cycle;Max_cycle;Signal;HPM_P1;HPM_P2
2022/03/13 00:00:36;;;;;;;;;;;23.90;99.90;;;;;;6130215;23;20219;-76
2022/03/13 00:03:09;;;;;;;;;;;23.70;99.90;;;;;;6155714;23;20019;-76
2022/03/13 00:05:41;;;;;;;;;;;23.70;99.90;;;;;;6129873;23;19943;-76
2022/03/13 00:08:18;;;;;;;;;;;23.50;99.90;;;;;;6130702;23;19910;-76
2022/03/13 00:10:50;;;;;;;;;;;23.40;99.90;;;;;;6157726;23;19907;-76
2022/03/13 00:13:19;;;;;;;;;;;23.60;99.90;;;;;;6130603;23;19955;-78
2022/03/13 00:15:47;;;;;;;;;;;23.70;99.90;;;;;;6129389;23;19901;-76
2022/03/13 00:18:14;;;;;;;;;;;23.60;99.90;;;;;;6157852;23;19915;-76
2022/03/13 00:20:41;;;;;;;;;;;23.50;99.90;;;;;;6131067;23;19936;-77
2022/03/13 00:23:08;;;;;;;;;;;23.40;99.90;;;;;;6155473;23;19904;-77
2022/03/13 00:25:35;;;;;;;;;;;23.40;99.90;;;;;;6155807;23;19924;-77
2022/03/13 00:28:03;;;;;;;;;;;23.40;99.90;;;;;;6157341;23;19908;-77
2022/03/13 00:30:30;;;;;;;;;;;23.20;99.90;;;;;;6131197;23;19900;-77
2022/03/13 00:32:57;;;;;;;;;;;22.80;99.90;;;;;;6130904;23;19901;-76
2022/03/13 00:35:24;;;;;;;;;;;22.70;99.90;;;;;;6157261;23;20234;-75
2022/03/13 00:37:51;;;;;;;;;;;22.40;99.90;;;;;;6157099;23;19912;-76
2022/03/13 00:40:18;;;;;;;;;;;22.20;99.90;;;;;;6156904;23;19912;-76
2022/03/13 00:42:45;;;;;;;;;;;22.00;99.90;;;;;;6130404;23;19900;-76
2022/03/13 00:45:13;;;;;;;;;;;22.10;99.90;;;;;;6130604;23;20023;-76
2022/03/13 00:47:40;;;;;;;;;;;22.10;99.90;;;;;;6156971;23;19905;-76
2022/03/13 00:50:07;;;;;;;;;;;22.20;99.90;;;;;;6156676;23;19907;-76
2022/03/13 00:52:33;;;;;;;;;;;22.40;99.90;;;;;;6156582;23;19905;-76
2022/03/13 00:55:00;;;;;;;;;;;22.60;99.90;;;;;;6156703;23;19907;-76
2022/03/13 00:57:29;;;;;;;;;;;22.90;99.90;;;;;;6130681;23;20320;-76
2022/03/13 00:59:55;;;;;;;;;;;23.10;99.90;;;;;;6157966;23;19900;-77
2022/03/13 01:02:22;;;;;;;;;;;23.20;99.90;;;;;;6132456;23;19902;-76
2022/03/13 01:04:49;;;;;;;;;;;23.40;99.90;;;;;;6159112;23;20389;-76
2022/03/13 01:07:15;;;;;;;;;;;23.40;99.90;;;;;;6160714;23;20366;-76
2022/03/13 01:09:42;;;;;;;;;;;23.50;99.90;;;;;;6160370;23;19901;-76
2022/03/13 01:12:10;;;;;;;;;;;23.60;99.90;;;;;;6159901;23;20314;-77
2022/03/13 01:14:37;;;;;;;;;;;23.50;99.90;;;;;;6159680;23;19908;-76
2022/03/13 01:17:08;;;;;;;;;;;23.40;99.90;;;;;;6132928;23;20314;-77
2022/03/13 01:19:34;;;;;;;;;;;23.10;99.90;;;;;;6131230;23;19900;-77
2022/03/13 01:22:01;;;;;;;;;;;22.90;99.90;;;;;;6157742;23;19900;-77
2022/03/13 01:24:30;;;;;;;;;;;22.70;99.90;;;;;;6157586;23;19936;-76
2022/03/13 01:27:01;;;;;;;;;;;22.40;99.90;;;;;;6157057;23;19950;-75
2022/03/13 01:29:27;;;;;;;;;;;22.10;99.90;;;;;;6130977;23;19943;-76
2022/03/13 01:31:54;;;;;;;;;;;22.00;99.90;;;;;;6130863;23;19912;-76
2022/03/13 01:34:38;;;;;;;;;;;21.90;99.90;;;;;;6156751;23;19932;-76
2022/03/13 01:37:07;;;;;;;;;;;21.90;99.90;;;;;;6156504;23;19970;-75
2022/03/13 01:39:34;;;;;;;;;;;21.80;99.90;;;;;;6130507;23;19901;-76
2022/03/13 01:42:01;;;;;;;;;;;21.90;99.90;;;;;;6130917;23;19901;-76
2022/03/13 01:44:28;;;;;;;;;;;21.90;99.90;;;;;;6130909;23;19911;-76
2022/03/13 01:46:55;;;;;;;;;;;21.90;99.90;;;;;;6156754;23;19900;-76
2022/03/13 01:49:22;;;;;;;;;;;22.00;99.90;;;;;;6156537;23;19908;-76
2022/03/13 01:51:49;;;;;;;;;;;22.20;99.90;;;;;;6157013;23;19907;-76
2022/03/13 01:54:16;;;;;;;;;;;22.50;99.90;;;;;;6156440;23;19901;-76
2022/03/13 01:56:43;;;;;;;;;;;22.90;99.90;;;;;;6156517;23;20275;-76
2022/03/13 01:59:11;;;;;;;;;;;23.30;99.90;;;;;;6157222;23;19907;-76
2022/03/13 02:01:38;;;;;;;;;;;23.40;99.90;;;;;;6157566;23;19904;-77
2022/03/13 02:04:05;;;;;;;;;;;23.50;99.90;;;;;;6130345;23;19955;-77
2022/03/13 02:06:32;;;;;;;;;;;23.40;99.90;;;;;;6156109;23;19909;-77
2022/03/13 02:08:59;;;;;;;;;;;23.30;99.90;;;;;;6156302;23;19900;-77
2022/03/13 02:11:32;;;;;;;;;;;23.40;99.90;;;;;;6130114;23;19951;-78
2022/03/13 02:13:58;;;;;;;;;;;23.40;99.90;;;;;;6156287;23;19900;-77
2022/03/13 02:16:29;;;;;;;;;;;23.60;99.90;;;;;;6130140;23;19900;-77
2022/03/13 02:18:56;;;;;;;;;;;23.60;99.90;;;;;;6129747;23;19912;-78
2022/03/13 02:21:27;;;;;;;;;;;23.50;99.90;;;;;;6129881;23;19901;-77
2022/03/13 02:24:00;;;;;;;;;;;23.50;99.90;;;;;;6156170;23;20314;-77
2022/03/13 02:26:27;;;;;;;;;;;23.60;99.90;;;;;;6129856;23;20333;-77
2022/03/13 02:28:54;;;;;;;;;;;23.70;99.90;;;;;;6156346;23;20310;-76
2022/03/13 02:31:31;;;;;;;;;;;23.70;99.90;;;;;;6156585;23;19984;-76
2022/03/13 02:33:58;;;;;;;;;;;23.60;99.90;;;;;;6156314;23;19905;-76
2022/03/13 02:36:31;;;;;;;;;;;23.80;99.90;;;;;;6129995;23;19915;-77
2022/03/13 02:39:02;;;;;;;;;;;23.90;99.90;;;;;;6129705;23;19905;-77
2022/03/13 02:41:29;;;;;;;;;;;23.80;99.90;;;;;;6155837;23;19971;-76
2022/03/13 02:43:56;;;;;;;;;;;23.70;99.90;;;;;;6130346;23;19907;-77
2022/03/13 02:46:24;;;;;;;;;;;23.70;99.90;;;;;;6156004;23;20281;-77
2022/03/13 02:48:51;;;;;;;;;;;23.60;99.90;;;;;;6155684;23;19901;-78
2022/03/13 02:51:18;;;;;;;;;;;23.80;99.90;;;;;;6156023;23;20187;-78
2022/03/13 02:53:45;;;;;;;;;;;24.00;99.90;;;;;;6156138;23;19901;-77
2022/03/13 02:56:11;;;;;;;;;;;24.10;99.90;;;;;;6129995;23;20269;-77
2022/03/13 02:58:38;;;;;;;;;;;24.00;99.90;;;;;;6156211;23;19910;-77
2022/03/13 03:01:05;;;;;;;;;;;24.10;99.90;;;;;;6155917;23;19900;-77
2022/03/13 03:03:31;;;;;;;;;;;24.10;99.90;;;;;;6129667;23;20028;-77
2022/03/13 03:05:58;;;;;;;;;;;24.20;99.90;;;;;;6155500;23;19908;-76
2022/03/13 03:08:24;;;;;;;;;;;24.00;99.90;;;;;;6129648;23;20233;-77
2022/03/13 03:10:51;;;;;;;;;;;24.10;99.90;;;;;;6129670;23;19947;-77
2022/03/13 03:13:18;;;;;;;;;;;24.10;99.90;;;;;;6155827;23;19905;-77
2022/03/13 03:15:44;;;;;;;;;;;24.20;99.90;;;;;;6155780;23;20230;-77
2022/03/13 03:18:11;;;;;;;;;;;24.30;99.90;;;;;;6155992;23;19940;-76
2022/03/13 03:20:38;;;;;;;;;;;24.40;99.90;;;;;;6155816;23;19908;-77
2022/03/13 03:23:05;;;;;;;;;;;24.70;99.90;;;;;;6129795;23;19901;-77
2022/03/13 03:25:32;;;;;;;;;;;25.00;99.90;;;;;;6105296;23;19905;-78
2022/03/13 03:27:59;;;;;;;;;;;25.00;99.90;;;;;;6129642;23;19901;-77
2022/03/13 03:30:27;;;;;;;;;;;25.30;99.90;;;;;;6130333;23;20318;-77
2022/03/13 03:32:55;;;;;;;;;;;25.40;99.90;;;;;;6155812;23;19908;-77
2022/03/13 03:35:24;;;;;;;;;;;25.40;99.90;;;;;;6129503;23;20263;-77
2022/03/13 03:37:51;;;;;;;;;;;25.30;99.90;;;;;;6155523;23;20238;-77
2022/03/13 03:40:25;;;;;;;;;;;25.40;99.90;;;;;;6155767;23;19901;-78
2022/03/13 03:42:55;;;;;;;;;;;25.40;99.90;;;;;;6155533;23;20238;-78
2022/03/13 03:45:21;;;;;;;;;;;25.20;99.90;;;;;;6129704;23;19901;-77
2022/03/13 03:47:48;;;;;;;;;;;25.20;99.90;;;;;;6156004;23;19900;-79
2022/03/13 03:50:15;;;;;;;;;;;25.00;99.90;;;;;;6155845;23;19996;-79
2022/03/13 03:52:43;;;;;;;;;;;25.00;99.90;;;;;;6129849;23;19909;-80
2022/03/13 03:55:10;;;;;;;;;;;25.10;99.90;;;;;;6155453;23;19955;-78
2022/03/13 03:57:36;;;;;;;;;;;25.20;99.90;;;;;;6155000;23;19968;-77
2022/03/13 04:00:05;;;;;;;;;;;25.50;99.90;;;;;;6155831;23;19953;-78
2022/03/13 04:02:32;;;;;;;;;;;25.60;99.90;;;;;;6157196;23;19972;-77
2022/03/13 04:05:00;;;;;;;;;;;25.80;99.90;;;;;;6156852;23;20223;-79
2022/03/13 04:07:27;;;;;;;;;;;25.70;99.90;;;;;;6131215;23;20067;-80
2022/03/13 04:09:54;;;;;;;;;;;25.50;99.90;;;;;;6131066;23;19928;-80
2022/03/13 04:12:21;;;;;;;;;;;25.60;99.90;;;;;;6156807;23;20277;-78
2022/03/13 04:14:47;;;;;;;;;;;25.40;99.90;;;;;;6157228;23;20374;-78
2022/03/13 04:17:14;;;;;;;;;;;25.00;99.90;;;;;;6157069;23;19947;-78
2022/03/13 04:19:41;;;;;;;;;;;24.90;99.90;;;;;;6157545;23;19955;-78
2022/03/13 04:22:07;;;;;;;;;;;25.00;99.90;;;;;;6157839;23;19986;-77
2022/03/13 04:24:34;;;;;;;;;;;25.00;99.90;;;;;;6157644;23;19900;-78
2022/03/13 04:27:01;;;;;;;;;;;24.90;99.90;;;;;;6157174;23;19900;-78
2022/03/13 04:29:27;;;;;;;;;;;24.80;99.90;;;;;;6130824;23;19912;-78
2022/03/13 04:31:55;;;;;;;;;;;25.00;99.90;;;;;;6130911;23;19901;-77
2022/03/13 04:34:22;;;;;;;;;;;25.00;99.90;;;;;;6130787;23;19900;-79
2022/03/13 04:36:49;;;;;;;;;;;24.90;99.90;;;;;;6131061;23;19907;-79
2022/03/13 04:39:17;;;;;;;;;;;25.00;99.90;;;;;;6130728;23;20333;-79
2022/03/13 04:41:43;;;;;;;;;;;25.10;99.90;;;;;;6157030;23;20258;-78
2022/03/13 04:44:14;;;;;;;;;;;24.90;99.90;;;;;;6156761;23;20302;-78
2022/03/13 04:46:42;;;;;;;;;;;24.90;99.90;;;;;;6156929;23;19908;-78
2022/03/13 04:49:09;;;;;;;;;;;24.80;99.90;;;;;;6130696;23;19946;-78
2022/03/13 04:51:39;;;;;;;;;;;24.80;99.90;;;;;;6130900;23;19901;-79
2022/03/13 04:54:07;;;;;;;;;;;24.80;99.90;;;;;;6157023;23;20238;-78
2022/03/13 04:56:34;;;;;;;;;;;25.00;99.90;;;;;;6156821;23;19900;-79
2022/03/13 04:59:00;;;;;;;;;;;24.80;99.90;;;;;;6130464;23;19905;-79
2022/03/13 05:01:27;;;;;;;;;;;24.90;99.90;;;;;;6156966;23;20285;-78
2022/03/13 05:03:54;;;;;;;;;;;25.00;99.90;;;;;;6156514;23;19900;-79
2022/03/13 05:06:20;;;;;;;;;;;25.00;99.90;;;;;;6156814;23;19942;-77
2022/03/13 05:08:49;;;;;;;;;;;25.10;99.90;;;;;;6156878;23;19909;-78
2022/03/13 05:11:17;;;;;;;;;;;25.00;99.90;;;;;;6130300;23;19948;-79
2022/03/13 05:13:44;;;;;;;;;;;25.00;99.90;;;;;;6157093;23;19904;-79
2022/03/13 05:16:11;;;;;;;;;;;24.70;99.90;;;;;;6156862;23;20318;-79
2022/03/13 05:18:37;;;;;;;;;;;24.60;99.90;;;;;;6130641;23;20004;-78
2022/03/13 05:21:04;;;;;;;;;;;24.50;99.90;;;;;;6156819;23;20275;-78
2022/03/13 05:23:31;;;;;;;;;;;24.40;99.90;;;;;;6130596;23;19900;-78
2022/03/13 05:25:57;;;;;;;;;;;24.40;99.90;;;;;;6156725;23;19932;-78
2022/03/13 05:28:24;;;;;;;;;;;24.20;99.90;;;;;;6130802;23;19916;-78
2022/03/13 05:30:50;;;;;;;;;;;24.20;99.90;;;;;;6130410;23;19900;-78
2022/03/13 05:33:17;;;;;;;;;;;24.10;99.90;;;;;;6130399;23;19966;-78
2022/03/13 05:35:44;;;;;;;;;;;24.00;99.90;;;;;;6130466;23;19900;-79
2022/03/13 05:38:11;;;;;;;;;;;23.90;99.90;;;;;;6156750;23;19912;-78
2022/03/13 05:40:37;;;;;;;;;;;23.80;99.90;;;;;;6130388;23;19928;-78
2022/03/13 05:43:04;;;;;;;;;;;23.70;99.90;;;;;;6130613;23;20310;-77
2022/03/13 05:45:31;;;;;;;;;;;23.70;99.90;;;;;;6130179;23;19900;-76
2022/03/13 05:48:06;;;;;;;;;;;23.70;99.90;;;;;;6156512;23;20310;-78
2022/03/13 05:50:33;;;;;;;;;;;23.70;99.90;;;;;;6130314;23;19979;-78
2022/03/13 05:53:00;;;;;;;;;;;23.80;99.90;;;;;;6130404;23;19905;-78
2022/03/13 05:55:27;;;;;;;;;;;23.80;99.90;;;;;;6130755;23;19920;-78
2022/03/13 05:57:54;;;;;;;;;;;23.90;99.90;;;;;;6156719;23;19992;-78
2022/03/13 06:00:22;;;;;;;;;;;24.00;99.90;;;;;;6156796;23;19900;-78
2022/03/13 06:02:49;;;;;;;;;;;24.20;99.90;;;;;;6131600;23;20229;-79
2022/03/13 06:05:19;;;;;;;;;;;24.20;99.90;;;;;;6120213;23;19934;-76
2022/03/13 06:07:47;;;;;;;;;;;24.20;99.90;;;;;;6100914;23;19901;-77
2022/03/13 06:10:14;;;;;;;;;;;24.20;99.90;;;;;;6126855;23;19901;-77
2022/03/13 06:12:42;;;;;;;;;;;24.10;99.90;;;;;;6076922;23;19955;-77
2022/03/13 06:15:11;;;;;;;;;;;24.20;99.90;;;;;;6101358;23;20271;-77
2022/03/13 06:17:40;;;;;;;;;;;24.10;99.90;;;;;;6100715;23;19909;-76
2022/03/13 06:20:07;;;;;;;;;;;24.10;99.90;;;;;;6100300;23;20135;-77
2022/03/13 06:22:34;;;;;;;;;;;24.00;99.90;;;;;;6125882;23;20396;-77
2022/03/13 06:25:01;;;;;;;;;;;23.90;99.90;;;;;;6126162;23;19901;-76
2022/03/13 06:27:27;;;;;;;;;;;23.70;99.90;;;;;;6099985;23;19912;-76
2022/03/13 06:29:54;;;;;;;;;;;23.70;99.90;;;;;;6126618;23;19901;-78
2022/03/13 06:32:22;;;;;;;;;;;23.70;99.90;;;;;;6099757;23;19901;-75
2022/03/13 06:34:50;;;;;;;;;;;23.50;99.90;;;;;;6125937;23;19905;-74
2022/03/13 06:37:16;;;;;;;;;;;23.50;99.90;;;;;;6099336;23;19911;-75
2022/03/13 06:39:43;;;;;;;;;;;23.50;99.90;;;;;;6099499;23;19952;-75
2022/03/13 06:42:09;;;;;;;;;;;23.50;99.90;;;;;;6099559;23;20211;-76
2022/03/13 06:44:36;;;;;;;;;;;23.50;99.90;;;;;;6126000;23;19917;-76
2022/03/13 06:47:03;;;;;;;;;;;23.50;99.90;;;;;;6099754;23;20315;-77
2022/03/13 06:49:30;;;;;;;;;;;23.40;99.90;;;;;;6126216;23;19907;-79
2022/03/13 06:51:57;;;;;;;;;;;23.40;99.90;;;;;;6125870;23;19968;-77
2022/03/13 06:54:24;;;;;;;;;;;23.40;99.90;;;;;;6099726;23;19907;-77
2022/03/13 06:56:51;;;;;;;;;;;23.30;99.90;;;;;;6099483;23;19901;-76
2022/03/13 06:59:17;;;;;;;;;;;23.30;99.90;;;;;;6099933;23;20043;-77
2022/03/13 07:01:44;;;;;;;;;;;23.30;99.90;;;;;;6099632;23;19901;-77
2022/03/13 07:04:12;;;;;;;;;;;23.50;99.90;;;;;;6125479;23;19901;-77
2022/03/13 07:06:39;;;;;;;;;;;23.50;99.90;;;;;;6152727;23;19915;-77
2022/03/13 07:09:06;;;;;;;;;;;23.60;99.90;;;;;;6156149;23;20381;-77
2022/03/13 07:11:33;;;;;;;;;;;23.80;99.90;;;;;;6156075;23;19900;-77
2022/03/13 07:14:02;;;;;;;;;;;24.20;99.90;;;;;;6156192;23;19901;-76
2022/03/13 07:16:29;;;;;;;;;;;24.20;99.90;;;;;;6130889;23;19915;-77
2022/03/13 07:18:55;;;;;;;;;;;23.90;99.90;;;;;;6156233;23;19915;-76
2022/03/13 07:21:22;;;;;;;;;;;24.00;99.90;;;;;;6129741;23;19927;-76
2022/03/13 07:23:49;;;;;;;;;;;23.90;99.90;;;;;;6156123;23;20310;-75
2022/03/13 07:26:15;;;;;;;;;;;23.70;99.90;;;;;;6156983;23;19901;-75
2022/03/13 07:28:42;;;;;;;;;;;23.50;99.90;;;;;;6157174;23;20262;-73
2022/03/13 07:31:08;;;;;;;;;;;23.30;99.90;;;;;;6130975;23;19900;-75
2022/03/13 07:33:35;;;;;;;;;;;23.20;99.90;;;;;;6156769;23;20000;-75
2022/03/13 07:36:02;;;;;;;;;;;23.10;99.90;;;;;;6159147;23;19928;-75
2022/03/13 07:38:29;;;;;;;;;;;22.80;99.90;;;;;;6158822;23;19905;-74
2022/03/13 07:40:56;;;;;;;;;;;22.70;99.90;;;;;;6132169;23;19901;-75
2022/03/13 07:43:23;;;;;;;;;;;22.60;99.90;;;;;;6158094;23;19955;-75
2022/03/13 07:45:50;;;;;;;;;;;22.60;99.90;;;;;;6158567;23;19923;-75
2022/03/13 07:48:16;;;;;;;;;;;22.50;99.90;;;;;;6132237;23;20337;-74
2022/03/13 07:50:43;;;;;;;;;;;22.40;99.90;;;;;;6132693;23;20248;-74
2022/03/13 07:53:10;;;;;;;;;;;22.30;99.90;;;;;;6132335;23;20310;-75
2022/03/13 07:55:36;;;;;;;;;;;22.30;99.90;;;;;;6132187;23;20376;-74
2022/03/13 07:58:03;;;;;;;;;;;22.20;99.90;;;;;;6158133;23;19979;-74
2022/03/13 08:00:30;;;;;;;;;;;22.10;99.90;;;;;;6132836;23;20306;-75
2022/03/13 08:02:56;;;;;;;;;;;22.00;99.90;;;;;;6131932;23;19900;-75
2022/03/13 08:05:23;;;;;;;;;;;22.00;99.90;;;;;;6157829;23;19908;-75
2022/03/13 08:07:51;;;;;;;;;;;22.00;99.90;;;;;;6132894;23;19960;-74
2022/03/13 08:10:20;;;;;;;;;;;21.90;99.90;;;;;;6132446;23;19936;-75
2022/03/13 08:12:51;;;;;;;;;;;21.90;99.90;;;;;;6158024;23;19992;-75
2022/03/13 08:15:18;;;;;;;;;;;21.80;99.90;;;;;;6158577;23;19911;-74
2022/03/13 08:17:45;;;;;;;;;;;21.80;99.90;;;;;;6131849;23;19908;-75
2022/03/13 08:20:12;;;;;;;;;;;21.80;99.90;;;;;;6132813;23;20338;-75
2022/03/13 08:22:38;;;;;;;;;;;21.80;99.90;;;;;;6157341;23;19907;-74
2022/03/13 08:25:06;;;;;;;;;;;21.70;99.90;;;;;;6160438;23;19900;-76
2022/03/13 08:27:34;;;;;;;;;;;21.60;99.90;;;;;;6165547;23;19900;-76
2022/03/13 08:30:07;;;;;;;;;;;21.50;99.90;;;;;;6164408;23;19907;-75
2022/03/13 08:32:34;;;;;;;;;;;21.50;99.90;;;;;;6159057;23;19908;-75
2022/03/13 08:35:01;;;;;;;;;;;21.50;99.90;;;;;;6133336;23;19923;-75
2022/03/13 08:37:27;;;;;;;;;;;21.30;99.90;;;;;;6171287;23;19919;-76
2022/03/13 08:39:54;;;;;;;;;;;21.30;99.90;;;;;;6140812;23;19900;-76
2022/03/13 08:42:21;;;;;;;;;;;21.20;99.90;;;;;;6160397;23;20279;-76
2022/03/13 08:44:47;;;;;;;;;;;21.20;99.90;;;;;;6159610;23;19904;-75
2022/03/13 08:47:14;;;;;;;;;;;21.10;99.90;;;;;;6158277;23;20330;-75
2022/03/13 08:49:41;;;;;;;;;;;21.10;99.90;;;;;;6158801;23;19901;-75
2022/03/13 08:52:07;;;;;;;;;;;21.10;99.90;;;;;;6158655;23;19987;-74
2022/03/13 08:54:34;;;;;;;;;;;21.10;99.90;;;;;;6132657;23;20278;-75
2022/03/13 08:57:02;;;;;;;;;;;21.00;99.90;;;;;;6158782;23;19900;-75
2022/03/13 08:59:35;;;;;;;;;;;21.00;99.90;;;;;;6158942;23;20234;-75
2022/03/13 09:02:01;;;;;;;;;;;20.90;99.90;;;;;;6132736;23;20310;-75
2022/03/13 09:04:29;;;;;;;;;;;20.90;99.90;;;;;;6132122;23;19907;-76
2022/03/13 09:06:57;;;;;;;;;;;20.90;99.90;;;;;;6132468;23;19923;-75
2022/03/13 09:09:24;;;;;;;;;;;20.90;99.90;;;;;;6132083;23;19908;-75
2022/03/13 09:11:53;;;;;;;;;;;20.90;99.90;;;;;;6158340;23;20237;-75
2022/03/13 09:14:21;;;;;;;;;;;20.90;99.90;;;;;;6158517;23;19901;-76
2022/03/13 09:16:47;;;;;;;;;;;20.80;99.90;;;;;;6158837;23;19911;-76
2022/03/13 09:19:14;;;;;;;;;;;20.80;99.90;;;;;;6158798;23;19909;-75
2022/03/13 09:21:41;;;;;;;;;;;20.80;99.90;;;;;;6132729;23;19908;-75
2022/03/13 09:24:09;;;;;;;;;;;20.90;99.90;;;;;;6132674;23;19904;-75
2022/03/13 09:26:39;;;;;;;;;;;20.90;99.90;;;;;;6158836;23;19983;-76
2022/03/13 09:29:06;;;;;;;;;;;20.80;99.90;;;;;;6132100;23;19943;-75
2022/03/13 09:31:32;;;;;;;;;;;20.80;99.90;;;;;;6158644;23;19907;-75
2022/03/13 09:33:59;;;;;;;;;;;20.80;99.90;;;;;;6158854;23;19906;-75
2022/03/13 09:36:26;;;;;;;;;;;20.80;99.90;;;;;;6132547;23;20215;-75
2022/03/13 09:38:52;;;;;;;;;;;20.80;99.90;;;;;;6158771;23;19905;-75
2022/03/13 09:41:19;;;;;;;;;;;20.80;99.90;;;;;;6132600;23;20043;-75
2022/03/13 09:43:46;;;;;;;;;;;20.80;99.90;;;;;;6132123;23;19900;-75
2022/03/13 09:46:15;;;;;;;;;;;20.80;99.90;;;;;;6157996;23;19901;-76
2022/03/13 09:48:43;;;;;;;;;;;20.80;99.90;;;;;;6158602;23;19979;-76
2022/03/13 09:51:09;;;;;;;;;;;20.80;99.90;;;;;;6157058;23;20380;-75
2022/03/13 09:53:36;;;;;;;;;;;20.70;99.90;;;;;;6130616;23;19901;-75
2022/03/13 09:56:05;;;;;;;;;;;20.70;99.90;;;;;;6157034;23;20361;-75
2022/03/13 09:58:32;;;;;;;;;;;20.70;99.90;;;;;;6156901;23;20234;-75
2022/03/13 10:00:59;;;;;;;;;;;20.70;99.90;;;;;;6130455;23;19932;-75
2022/03/13 10:03:26;;;;;;;;;;;20.80;99.90;;;;;;6156837;23;19988;-74
2022/03/13 10:05:55;;;;;;;;;;;20.80;99.90;;;;;;6130144;23;19988;-75
2022/03/13 10:08:26;;;;;;;;;;;20.70;99.90;;;;;;6157975;23;19904;-75
2022/03/13 10:10:53;;;;;;;;;;;20.70;99.90;;;;;;6157381;23;19924;-74
2022/03/13 10:13:52;;;;;;;;;;;20.70;99.90;;;;;;6157314;23;20315;-75
2022/03/13 10:16:25;;;;;;;;;;;20.70;99.90;;;;;;6053140;23;19975;-75
2022/03/13 10:18:52;;;;;;;;;;;20.70;99.90;;;;;;6157218;23;19909;-75
2022/03/13 10:21:18;;;;;;;;;;;20.70;99.90;;;;;;6131303;23;19962;-75
2022/03/13 10:23:48;;;;;;;;;;;20.70;99.90;;;;;;6157804;23;19905;-76
2022/03/13 10:26:18;;;;;;;;;;;20.70;99.90;;;;;;6130935;23;19932;-75
2022/03/13 10:28:45;;;;;;;;;;;20.60;99.90;;;;;;6130492;23;19907;-75
2022/03/13 10:31:17;;;;;;;;;;;20.60;99.90;;;;;;6157667;23;19931;-76
2022/03/13 10:33:44;;;;;;;;;;;20.60;99.90;;;;;;6131145;23;19900;-75
2022/03/13 10:36:19;;;;;;;;;;;20.60;99.90;;;;;;6131767;23;19900;-76
2022/03/13 10:38:47;;;;;;;;;;;20.50;99.90;;;;;;6130464;23;19904;-75
2022/03/13 10:41:14;;;;;;;;;;;20.50;99.90;;;;;;6130818;23;19904;-75
2022/03/13 10:43:41;;;;;;;;;;;20.40;99.90;;;;;;6157075;23;19901;-75
2022/03/13 10:46:09;;;;;;;;;;;20.40;99.90;;;;;;6156254;23;19904;-75
2022/03/13 10:48:36;;;;;;;;;;;20.30;99.90;;;;;;6156730;23;19901;-75
2022/03/13 10:51:07;;;;;;;;;;;20.30;99.90;;;;;;6131204;23;19907;-75
2022/03/13 10:53:38;;;;;;;;;;;20.20;99.90;;;;;;6157954;23;19931;-75
2022/03/13 10:56:08;;;;;;;;;;;20.10;99.90;;;;;;6131721;23;19951;-76
2022/03/13 10:58:50;;;;;;;;;;;20.00;99.90;;;;;;6130071;23;19987;-74
2022/03/13 11:01:21;;;;;;;;;;;20.00;99.90;;;;;;6158222;23;20322;-75
2022/03/13 11:04:06;;;;;;;;;;;20.00;99.90;;;;;;6156942;23;20344;-75
2022/03/13 11:06:33;;;;;;;;;;;20.00;99.90;;;;;;6156324;23;20345;-75
2022/03/13 11:09:00;;;;;;;;;;;20.00;99.90;;;;;;6129793;23;19908;-75
2022/03/13 11:11:27;;;;;;;;;;;19.90;99.90;;;;;;6131216;23;19905;-75
2022/03/13 11:13:56;;;;;;;;;;;19.80;99.90;;;;;;6131415;23;19904;-76
2022/03/13 11:16:24;;;;;;;;;;;19.80;99.90;;;;;;6157266;23;19900;-76
2022/03/13 11:18:54;;;;;;;;;;;19.80;99.90;;;;;;6131180;23;19908;-76
2022/03/13 11:21:21;;;;;;;;;;;19.70;99.90;;;;;;6131400;23;19916;-76
2022/03/13 11:23:49;;;;;;;;;;;19.70;99.90;;;;;;6157302;23;19907;-76
2022/03/13 11:26:16;;;;;;;;;;;19.70;99.90;;;;;;6157897;23;20298;-76
2022/03/13 11:28:48;;;;;;;;;;;19.60;99.90;;;;;;6131750;23;19908;-76
2022/03/13 11:31:29;;;;;;;;;;;19.60;99.90;;;;;;6131714;23;19991;-76
2022/03/13 11:34:16;;;;;;;;;;;19.60;99.90;;;;;;6131667;23;20230;-76
2022/03/13 11:36:47;;;;;;;;;;;19.70;99.90;;;;;;6158150;23;19905;-76
2022/03/13 11:39:24;;;;;;;;;;;19.70;99.90;;;;;;6158236;23;19934;-76
2022/03/13 11:41:50;;;;;;;;;;;19.60;99.90;;;;;;6158022;23;19979;-76
2022/03/13 11:44:23;;;;;;;;;;;19.60;99.90;;;;;;6131801;23;20002;-76
2022/03/13 11:46:53;;;;;;;;;;;19.60;99.90;;;;;;6158389;23;19904;-76
2022/03/13 11:49:26;;;;;;;;;;;19.60;99.90;;;;;;6131637;23;19905;-76
2022/03/13 11:52:13;;;;;;;;;;;19.60;99.90;;;;;;6157927;23;19975;-76
2022/03/13 11:55:01;;;;;;;;;;;19.50;99.90;;;;;;6107502;23;19927;-76
2022/03/13 11:57:50;;;;;;;;;;;19.50;99.90;;;;;;6158021;23;20245;-76
2022/03/13 12:00:17;;;;;;;;;;;19.50;99.90;;;;;;6131769;23;19904;-76
2022/03/13 12:02:44;;;;;;;;;;;19.50;99.90;;;;;;6157907;23;19901;-76
2022/03/13 12:05:26;;;;;;;;;;;19.50;99.90;;;;;;6131367;23;19909;-76
2022/03/13 12:08:06;;;;;;;;;;;19.40;99.90;;;;;;6131612;23;19900;-76
2022/03/13 12:10:43;;;;;;;;;;;19.50;99.90;;;;;;6157843;23;19901;-76
2022/03/13 12:13:10;;;;;;;;;;;19.50;99.90;;;;;;6132063;23;19907;-76
2022/03/13 12:15:39;;;;;;;;;;;19.50;99.90;;;;;;6131602;23;19904;-76
2022/03/13 12:18:23;;;;;;;;;;;19.40;99.90;;;;;;6131757;23;19909;-76
2022/03/13 12:20:50;;;;;;;;;;;19.40;99.90;;;;;;6158406;23;19987;-76
2022/03/13 12:23:33;;;;;;;;;;;19.40;99.90;;;;;;6159648;23;20380;-76
2022/03/13 12:26:14;;;;;;;;;;;19.40;99.90;;;;;;6159619;23;19901;-76
2022/03/13 12:28:41;;;;;;;;;;;19.30;99.90;;;;;;6133763;23;19904;-77
2022/03/13 12:31:08;;;;;;;;;;;19.30;99.90;;;;;;6133184;23;19901;-76
2022/03/13 12:33:39;;;;;;;;;;;19.30;99.90;;;;;;6159875;23;19939;-76
2022/03/13 12:36:06;;;;;;;;;;;19.30;99.90;;;;;;6133552;23;20342;-76
2022/03/13 12:38:33;;;;;;;;;;;19.20;99.90;;;;;;6159363;23;19940;-76
2022/03/13 12:41:02;;;;;;;;;;;19.20;99.90;;;;;;6133721;23;19904;-76
2022/03/13 12:43:49;;;;;;;;;;;19.20;99.90;;;;;;6133683;23;19905;-76
2022/03/13 12:46:17;;;;;;;;;;;19.20;99.90;;;;;;6133256;23;19928;-76
2022/03/13 12:48:55;;;;;;;;;;;19.10;99.90;;;;;;6159636;23;19901;-77
2022/03/13 12:51:43;;;;;;;;;;;19.10;99.90;;;;;;6159870;23;20340;-76
2022/03/13 12:54:11;;;;;;;;;;;19.20;99.90;;;;;;6159580;23;19900;-76
2022/03/13 12:56:55;;;;;;;;;;;19.20;99.90;;;;;;6159373;23;19995;-76
2022/03/13 12:59:28;;;;;;;;;;;19.10;99.90;;;;;;6159097;23;19909;-76
2022/03/13 13:02:03;;;;;;;;;;;19.10;99.90;;;;;;6159458;23;19901;-76
2022/03/13 13:04:31;;;;;;;;;;;19.10;99.90;;;;;;6159107;23;19901;-76
2022/03/13 13:06:57;;;;;;;;;;;19.10;99.90;;;;;;6132694;23;20303;-76
2022/03/13 13:09:28;;;;;;;;;;;19.00;99.90;;;;;;6159325;23;19904;-76
2022/03/13 13:11:54;;;;;;;;;;;18.90;99.90;;;;;;6158903;23;19908;-76
2022/03/13 13:14:25;;;;;;;;;;;18.90;99.90;;;;;;6133066;23;19900;-76
2022/03/13 13:16:56;;;;;;;;;;;18.80;99.90;;;;;;6159130;23;20211;-76
2022/03/13 13:19:23;;;;;;;;;;;18.80;99.90;;;;;;6159148;23;19915;-76
2022/03/13 13:21:59;;;;;;;;;;;18.80;99.90;;;;;;6132891;23;20369;-76
2022/03/13 13:24:27;;;;;;;;;;;18.80;99.90;;;;;;6132716;23;19900;-76
2022/03/13 13:26:54;;;;;;;;;;;18.80;99.90;;;;;;6159087;23;19901;-76
2022/03/13 13:29:38;;;;;;;;;;;18.90;99.90;;;;;;6132523;23;19955;-76
2022/03/13 13:32:18;;;;;;;;;;;18.90;99.90;;;;;;6158991;23;20318;-76
2022/03/13 13:35:03;;;;;;;;;;;19.00;99.90;;;;;;6158847;23;20344;-76
2022/03/13 13:37:30;;;;;;;;;;;18.90;99.90;;;;;;6159127;23;19904;-76
2022/03/13 13:40:03;;;;;;;;;;;18.90;99.90;;;;;;6158888;23;20001;-76
2022/03/13 13:42:32;;;;;;;;;;;18.90;99.90;;;;;;6132466;23;19901;-76
2022/03/13 13:45:03;;;;;;;;;;;18.90;99.90;;;;;;6132159;23;19908;-76
2022/03/13 13:47:29;;;;;;;;;;;18.90;99.90;;;;;;6158868;23;19901;-76
2022/03/13 13:49:56;;;;;;;;;;;18.80;99.90;;;;;;6159066;23;19900;-76
2022/03/13 13:52:30;;;;;;;;;;;18.80;99.90;;;;;;6132620;23;19901;-76
2022/03/13 13:54:56;;;;;;;;;;;18.70;99.90;;;;;;6132611;23;20310;-76
2022/03/13 13:57:23;;;;;;;;;;;18.70;99.90;;;;;;6157994;23;20322;-76
2022/03/13 13:59:50;;;;;;;;;;;18.60;99.90;;;;;;6132234;23;19901;-76
2022/03/13 14:02:18;;;;;;;;;;;18.60;99.90;;;;;;6158462;23;19936;-76
2022/03/13 14:04:48;;;;;;;;;;;18.50;99.90;;;;;;6131987;23;19948;-76
2022/03/13 14:07:15;;;;;;;;;;;18.50;99.90;;;;;;6132466;23;19900;-76
2022/03/13 14:09:44;;;;;;;;;;;18.50;99.90;;;;;;6157910;23;19923;-76
2022/03/13 14:12:12;;;;;;;;;;;18.40;99.90;;;;;;6132134;23;19908;-76
2022/03/13 14:14:39;;;;;;;;;;;18.50;99.90;;;;;;6132702;23;19908;-76
2022/03/13 14:17:05;;;;;;;;;;;18.50;99.90;;;;;;6160141;23;19975;-76
2022/03/13 14:19:34;;;;;;;;;;;18.60;99.90;;;;;;6159501;23;19983;-76
2022/03/13 14:22:01;;;;;;;;;;;18.60;99.90;;;;;;6159593;23;19906;-76
2022/03/13 14:24:31;;;;;;;;;;;18.70;99.90;;;;;;6159509;23;19900;-76